Time;durP1;ratioP1;P1;durP2;ratioP2;P2;SDS_P1;SDS_P2;PMS_P1;PMS_P2;Temp;Humidity;BMP_temperature;BMP_pressure;BME280_temperature;BME280_humidity;BME280_pressure;Samples;Min_cycle;Max_cycle;Signal;HPM_P1;HPM_P2
2021/03/17 00:00:16;;;;;;;12.10;3.25;;;3.40;79.60;;;;;;5072250;28;20057;-57
2021/03/17 00:02:42;;;;;;;14.30;3.47;;;3.40;79.70;;;;;;5072069;28;20540;-55
2021/03/17 00:05:08;;;;;;;11.40;4.30;;;3.30;80.00;;;;;;5071532;28;20033;-58
2021/03/17 00:07:34;;;;;;;13.00;3.25;;;3.40;79.70;;;;;;5072006;28;20055;-60
2021/03/17 00:09:59;;;;;;;7.95;3.15;;;3.50;79.40;;;;;;5071776;28;20031;-60
2021/03/17 00:12:25;;;;;;;9.40;2.88;;;3.50;79.70;;;;;;5071444;28;20028;-58
2021/03/17 00:14:51;;;;;;;8.27;3.17;;;3.40;79.50;;;;;;5069118;28;20040;-56
2021/03/17 00:17:17;;;;;;;10.82;4.05;;;3.40;79.70;;;;;;5069255;28;20123;-55
2021/03/17 00:19:42;;;;;;;9.38;3.80;;;3.60;79.20;;;;;;5045713;28;20033;-54
2021/03/17 00:22:08;;;;;;;11.50;3.38;;;3.50;79.50;;;;;;5060126;28;20116;-55
2021/03/17 00:24:35;;;;;;;9.07;3.42;;;3.50;79.50;;;;;;5064799;28;20032;-54
2021/03/17 00:27:00;;;;;;;8.25;3.33;;;3.50;79.50;;;;;;5063416;28;20061;-51
2021/03/17 00:29:26;;;;;;;8.27;3.90;;;3.50;79.60;;;;;;5060150;28;20037;-55
2021/03/17 00:31:51;;;;;;;8.07;3.22;;;3.30;80.20;;;;;;5071483;28;20037;-49
2021/03/17 00:34:17;;;;;;;10.23;3.00;;;3.30;80.30;;;;;;5071217;28;20029;-51
2021/03/17 00:36:43;;;;;;;11.93;3.45;;;3.20;80.80;;;;;;5054122;28;20040;-56
2021/03/17 00:39:09;;;;;;;7.43;3.35;;;3.10;81.30;;;;;;5055210;28;20044;-57
2021/03/17 00:41:34;;;;;;;8.50;3.08;;;3.10;81.10;;;;;;5075580;28;20041;-59
2021/03/17 00:44:00;;;;;;;8.38;3.42;;;3.20;81.10;;;;;;5076711;28;20098;-55
2021/03/17 00:46:25;;;;;;;9.80;3.22;;;3.30;80.60;;;;;;5076146;28;20040;-55
2021/03/17 00:48:51;;;;;;;8.45;3.30;;;3.40;80.10;;;;;;5076587;28;20024;-54
2021/03/17 00:51:17;;;;;;;8.68;3.53;;;3.50;79.90;;;;;;5076000;28;20033;-56
2021/03/17 00:53:42;;;;;;;8.63;3.30;;;3.50;79.70;;;;;;5076488;28;20513;-54
2021/03/17 00:56:08;;;;;;;7.25;3.15;;;3.40;81.00;;;;;;5066665;28;20037;-48
2021/03/17 00:58:33;;;;;;;7.38;3.20;;;3.30;80.60;;;;;;5071382;28;20036;-48
2021/03/17 01:00:59;;;;;;;10.20;3.45;;;3.40;80.30;;;;;;5071617;28;20032;-53
2021/03/17 01:03:24;;;;;;;10.88;3.92;;;3.60;79.50;;;;;;5071591;28;20044;-49
2021/03/17 01:05:50;;;;;;;10.07;4.18;;;3.60;79.60;;;;;;5070079;28;20116;-47
2021/03/17 01:08:16;;;;;;;18.02;3.72;;;3.70;79.10;;;;;;5059598;28;20055;-56
2021/03/17 01:10:47;;;;;;;10.68;3.70;;;3.60;79.50;;;;;;5059566;28;20033;-54
2021/03/17 01:13:14;;;;;;;8.88;3.28;;;3.60;79.80;;;;;;5069875;28;20067;-56
2021/03/17 01:15:40;;;;;;;9.32;3.40;;;3.60;79.70;;;;;;5071904;28;20165;-56
2021/03/17 01:18:06;;;;;;;9.32;3.25;;;3.10;81.80;;;;;;5073848;28;20040;-53
2021/03/17 01:20:33;;;;;;;7.15;2.97;;;3.20;81.50;;;;;;5076003;28;20028;-50
2021/03/17 01:22:59;;;;;;;7.57;3.33;;;3.40;80.90;;;;;;5075385;28;20043;-49
2021/03/17 01:25:35;;;;;;;8.73;3.92;;;3.50;80.80;;;;;;5061781;28;20033;-49
2021/03/17 01:28:03;;;;;;;9.00;3.10;;;3.40;81.50;;;;;;5071147;28;20467;-50
2021/03/17 01:30:32;;;;;;;8.85;4.03;;;3.30;81.40;;;;;;5075220;28;20033;-47
2021/03/17 01:32:58;;;;;;;13.75;3.90;;;3.30;81.80;;;;;;5074989;28;20040;-49
2021/03/17 01:35:24;;;;;;;16.83;4.38;;;3.20;82.20;;;;;;5095675;28;20024;-52
2021/03/17 01:37:50;;;;;;;5.57;3.22;;;3.30;82.40;;;;;;5081639;28;20046;-53
2021/03/17 01:40:16;;;;;;;10.07;3.58;;;3.30;82.40;;;;;;5075333;28;20032;-49
2021/03/17 01:42:42;;;;;;;7.88;3.28;;;3.10;83.20;;;;;;5074884;28;20499;-54
2021/03/17 01:45:15;;;;;;;10.57;3.40;;;3.20;83.10;;;;;;5075080;28;20039;-49
2021/03/17 01:47:42;;;;;;;11.30;3.85;;;3.20;83.20;;;;;;5074723;28;20028;-51
2021/03/17 01:50:14;;;;;;;7.13;3.60;;;3.10;84.10;;;;;;5074934;28;20032;-53
2021/03/17 01:52:41;;;;;;;15.70;3.85;;;3.10;83.00;;;;;;5057745;28;20495;-52
2021/03/17 01:55:08;;;;;;;10.05;3.67;;;3.10;83.30;;;;;;5075217;28;20060;-50
2021/03/17 01:57:34;;;;;;;7.60;3.60;;;3.00;84.00;;;;;;5074780;28;20033;-51
2021/03/17 02:00:00;;;;;;;9.48;3.53;;;3.00;84.20;;;;;;5074607;28;20036;-49
2021/03/17 02:02:26;;;;;;;10.02;4.07;;;3.00;84.00;;;;;;5074372;28;20028;-48
2021/03/17 02:04:52;;;;;;;8.65;3.25;;;2.90;84.30;;;;;;5074784;28;20029;-47
2021/03/17 02:07:17;;;;;;;6.82;3.83;;;2.80;84.50;;;;;;5056708;28;20033;-51
2021/03/17 02:09:44;;;;;;;12.07;4.60;;;2.80;84.50;;;;;;5074575;28;20035;-54
2021/03/17 02:12:30;;;;;;;7.63;3.40;;;2.80;84.70;;;;;;5056549;28;20103;-55
2021/03/17 02:15:24;;;;;;;7.93;3.40;;;2.80;84.60;;;;;;5043060;28;20052;-49
2021/03/17 02:17:51;;;;;;;9.32;3.55;;;2.80;84.90;;;;;;5047776;28;20044;-49
2021/03/17 02:20:54;;;;;;;11.68;3.53;;;2.80;84.90;;;;;;5074786;28;20032;-50
2021/03/17 02:23:32;;;;;;;9.82;3.45;;;2.80;85.00;;;;;;5073851;28;20499;-48
2021/03/17 02:26:19;;;;;;;11.82;3.47;;;2.60;85.90;;;;;;5056146;28;20396;-50
2021/03/17 02:29:23;;;;;;;8.38;3.60;;;2.60;86.20;;;;;;5072971;28;20475;-47
2021/03/17 02:31:53;;;;;;;8.07;3.65;;;2.70;85.30;;;;;;5059361;28;20127;-53
2021/03/17 02:34:24;;;;;;;15.63;3.92;;;2.80;85.10;;;;;;5056395;28;20537;-49
2021/03/17 02:36:56;;;;;;;11.10;3.88;;;2.70;85.30;;;;;;5074460;28;20513;-51
2021/03/17 02:39:57;;;;;;;7.40;3.80;;;2.60;85.70;;;;;;5073888;28;20082;-51
2021/03/17 02:42:35;;;;;;;7.68;3.63;;;2.50;86.40;;;;;;4991800;28;20457;-52
2021/03/17 02:45:06;;;;;;;12.10;3.83;;;2.70;85.60;;;;;;5063597;28;20036;-51
2021/03/17 02:47:37;;;;;;;6.65;3.70;;;2.80;85.10;;;;;;5086998;28;20047;-50
2021/03/17 02:50:04;;;;;;;9.27;3.85;;;2.80;85.20;;;;;;5073634;28;20035;-47
2021/03/17 02:52:33;;;;;;;6.32;3.33;;;2.60;85.80;;;;;;5073830;28;20029;-50
2021/03/17 02:55:00;;;;;;;12.40;3.75;;;2.60;85.90;;;;;;5055972;28;20103;-52
2021/03/17 02:57:27;;;;;;;7.72;3.35;;;2.50;86.30;;;;;;5073656;28;20041;-49
2021/03/17 02:59:55;;;;;;;9.68;3.60;;;2.40;86.90;;;;;;5055677;28;20062;-49
2021/03/17 03:02:21;;;;;;;12.65;3.42;;;2.40;87.10;;;;;;5073934;28;20044;-50
2021/03/17 03:04:53;;;;;;;10.65;3.67;;;2.60;87.10;;;;;;5073504;28;20067;-52
2021/03/17 03:07:21;;;;;;;8.05;3.95;;;2.50;86.50;;;;;;5073367;28;20037;-50
2021/03/17 03:09:49;;;;;;;8.98;4.10;;;2.60;86.60;;;;;;5073218;28;20468;-48
2021/03/17 03:12:16;;;;;;;9.43;3.60;;;2.70;85.70;;;;;;5072845;28;20468;-50
2021/03/17 03:14:43;;;;;;;8.10;3.30;;;2.80;85.30;;;;;;5073788;28;20596;-54
2021/03/17 03:17:11;;;;;;;11.90;3.80;;;2.80;85.40;;;;;;5055214;28;20117;-55
2021/03/17 03:19:49;;;;;;;15.70;4.03;;;2.80;85.00;;;;;;5077293;28;20487;-51
2021/03/17 03:22:15;;;;;;;9.50;3.47;;;2.90;84.60;;;;;;5072842;28;20041;-49
2021/03/17 03:24:43;;;;;;;9.50;3.75;;;2.60;85.40;;;;;;5072316;28;20063;-55
2021/03/17 03:27:09;;;;;;;9.02;3.55;;;2.60;85.80;;;;;;5072050;28;20025;-52
2021/03/17 03:29:35;;;;;;;5.43;3.85;;;2.70;85.70;;;;;;5072902;28;20029;-50
2021/03/17 03:32:05;;;;;;;8.63;4.38;;;2.70;85.60;;;;;;5075205;28;20032;-51
2021/03/17 03:34:31;;;;;;;8.15;3.65;;;2.70;85.50;;;;;;5056541;28;20111;-49
2021/03/17 03:36:57;;;;;;;10.35;3.38;;;2.90;85.10;;;;;;5077113;28;20028;-57
2021/03/17 03:39:23;;;;;;;7.63;3.45;;;2.80;84.90;;;;;;5076259;28;20040;-59
2021/03/17 03:41:48;;;;;;;9.18;4.38;;;2.90;84.30;;;;;;5078813;28;20044;-57
2021/03/17 03:44:14;;;;;;;9.82;4.47;;;2.80;85.00;;;;;;5055742;28;20041;-48
2021/03/17 03:46:40;;;;;;;10.93;4.68;;;2.90;84.70;;;;;;5055433;28;20079;-48
2021/03/17 03:49:07;;;;;;;13.07;3.63;;;2.90;84.40;;;;;;5072238;28;20033;-49
2021/03/17 03:51:36;;;;;;;12.35;4.03;;;2.90;84.20;;;;;;5072719;28;20121;-55
2021/03/17 03:54:13;;;;;;;9.15;3.67;;;2.70;85.40;;;;;;5072648;28;20036;-48
2021/03/17 03:56:44;;;;;;;17.08;4.55;;;2.60;86.00;;;;;;5072856;28;20048;-49
2021/03/17 03:59:18;;;;;;;7.30;3.65;;;2.50;86.50;;;;;;5072042;28;20032;-50
2021/03/17 04:01:44;;;;;;;;;;;2.40;87.00;;;;;;5072707;28;20024;-48
2021/03/17 04:04:14;;;;;;;8.18;4.00;;;2.50;86.80;;;;;;5072189;28;19905;-49
2021/03/17 04:06:45;;;;;;;13.00;3.60;;;2.60;86.20;;;;;;5054629;28;20032;-53
2021/03/17 04:09:11;;;;;;;8.95;4.15;;;2.70;85.70;;;;;;5071837;28;20025;-50
2021/03/17 04:11:40;;;;;;;9.35;4.10;;;2.60;85.80;;;;;;5072649;28;20082;-51
2021/03/17 04:14:08;;;;;;;15.40;4.40;;;2.60;85.60;;;;;;5072018;28;20098;-51
2021/03/17 04:16:35;;;;;;;7.63;3.22;;;2.50;86.10;;;;;;5055019;28;20047;-51
2021/03/17 04:19:02;;;;;;;10.77;3.72;;;2.40;86.50;;;;;;5071768;28;20024;-47
2021/03/17 04:21:31;;;;;;;12.07;4.25;;;2.40;86.70;;;;;;5092133;28;20512;-55
2021/03/17 04:24:01;;;;;;;7.32;3.47;;;2.40;86.70;;;;;;5084080;28;20032;-54
2021/03/17 04:26:29;;;;;;;15.57;4.15;;;2.10;88.00;;;;;;5072479;28;20024;-48
2021/03/17 04:28:56;;;;;;;12.48;4.07;;;2.30;87.20;;;;;;5071533;28;20044;-49
2021/03/17 04:31:23;;;;;;;9.20;3.60;;;2.40;86.80;;;;;;5071989;28;20029;-51
2021/03/17 04:33:49;;;;;;;10.65;4.97;;;2.40;86.40;;;;;;5071989;28;20029;-51
2021/03/17 04:36:16;;;;;;;8.85;3.75;;;2.50;86.30;;;;;;5072136;28;20119;-51
2021/03/17 04:38:42;;;;;;;12.90;4.40;;;2.30;87.00;;;;;;5075439;28;20059;-48
2021/03/17 04:41:09;;;;;;;9.70;4.25;;;2.30;87.10;;;;;;5071592;28;20039;-55
2021/03/17 04:43:37;;;;;;;10.32;4.18;;;2.50;86.30;;;;;;5053736;28;20144;-52
2021/03/17 04:46:04;;;;;;;10.30;3.67;;;2.40;86.90;;;;;;5071759;28;20518;-50
2021/03/17 04:48:30;;;;;;;8.60;3.53;;;2.50;86.30;;;;;;5071344;28;20033;-51
2021/03/17 04:50:57;;;;;;;10.63;4.13;;;2.50;86.50;;;;;;5071953;28;20028;-51
2021/03/17 04:53:23;;;;;;;9.93;4.40;;;2.30;87.10;;;;;;5053737;28;20495;-51
2021/03/17 04:55:49;;;;;;;12.00;5.22;;;2.20;87.20;;;;;;5051732;28;20037;-50
2021/03/17 04:58:22;;;;;;;10.90;3.97;;;2.30;86.90;;;;;;5051605;28;20520;-50
2021/03/17 05:00:49;;;;;;;7.75;3.78;;;2.40;86.60;;;;;;5071284;28;20394;-53
2021/03/17 05:03:19;;;;;;;13.57;4.22;;;2.50;86.00;;;;;;5053796;28;20514;-50
2021/03/17 05:05:48;;;;;;;10.98;4.03;;;2.50;85.70;;;;;;5072806;28;20082;-55
2021/03/17 05:08:17;;;;;;;7.07;3.33;;;2.60;85.40;;;;;;5053272;28;20029;-52
2021/03/17 05:10:45;;;;;;;9.65;4.70;;;2.50;85.80;;;;;;5053766;28;20029;-52
2021/03/17 05:13:13;;;;;;;8.98;3.85;;;2.40;86.10;;;;;;5053629;28;20079;-59
2021/03/17 05:15:39;;;;;;;8.40;4.05;;;2.60;85.70;;;;;;5071569;28;20040;-57
2021/03/17 05:18:07;;;;;;;8.38;3.80;;;2.50;85.90;;;;;;5071206;28;20123;-53
2021/03/17 05:20:34;;;;;;;8.70;4.28;;;2.40;85.90;;;;;;5071500;28;20044;-52
2021/03/17 05:23:00;;;;;;;11.38;3.90;;;2.40;86.10;;;;;;5071825;28;20051;-50
2021/03/17 05:25:28;;;;;;;9.95;4.35;;;2.60;85.40;;;;;;5071592;28;20079;-49
2021/03/17 05:28:04;;;;;;;11.10;4.13;;;2.40;86.50;;;;;;5070967;28;20036;-52
2021/03/17 05:30:38;;;;;;;10.18;4.03;;;2.50;85.70;;;;;;5071458;28;20120;-52
2021/03/17 05:33:08;;;;;;;11.80;4.22;;;2.60;85.80;;;;;;5091972;28;20028;-50
2021/03/17 05:35:34;;;;;;;8.15;3.70;;;2.70;85.00;;;;;;5077828;28;20055;-53
2021/03/17 05:38:00;;;;;;;11.25;5.03;;;2.50;85.70;;;;;;5071315;28;20048;-54
2021/03/17 05:40:26;;;;;;;8.32;3.72;;;2.40;86.20;;;;;;5071397;28;20036;-50
2021/03/17 05:42:53;;;;;;;12.27;4.22;;;2.20;86.90;;;;;;5071316;28;20032;-56
2021/03/17 05:45:20;;;;;;;8.68;4.07;;;2.40;86.50;;;;;;5052943;28;20033;-49
2021/03/17 05:47:48;;;;;;;12.80;4.25;;;2.50;86.10;;;;;;5053247;28;20036;-52
2021/03/17 05:50:20;;;;;;;8.02;4.03;;;2.60;85.80;;;;;;5071074;28;20032;-54
2021/03/17 05:52:46;;;;;;;9.52;4.47;;;2.70;85.80;;;;;;5071333;28;20025;-54
2021/03/17 05:55:13;;;;;;;8.25;3.92;;;2.70;86.00;;;;;;5071491;28;20062;-55
2021/03/17 05:57:43;;;;;;;10.98;4.00;;;2.60;86.60;;;;;;5071221;28;20541;-49
2021/03/17 06:00:14;;;;;;;9.45;4.20;;;2.80;86.10;;;;;;5036659;28;20411;-54
2021/03/17 06:02:40;;;;;;;7.75;4.07;;;2.60;86.50;;;;;;5072579;28;20041;-48
2021/03/17 06:05:10;;;;;;;8.30;4.38;;;2.30;87.80;;;;;;5074379;28;20075;-53
2021/03/17 06:08:22;;;;;;;9.55;4.57;;;2.60;87.10;;;;;;5057939;28;20120;-58
2021/03/17 06:10:49;;;;;;;8.50;4.30;;;2.60;87.20;;;;;;5045246;28;20088;-54
2021/03/17 06:13:15;;;;;;;10.63;3.97;;;2.40;88.60;;;;;;5056458;28;20026;-57
2021/03/17 06:15:56;;;;;;;16.35;5.78;;;2.50;88.20;;;;;;5056614;28;20163;-48
2021/03/17 06:18:25;;;;;;;9.73;4.53;;;2.60;88.90;;;;;;5056159;28;20040;-53
2021/03/17 06:20:51;;;;;;;11.70;4.53;;;2.20;90.40;;;;;;5074126;28;20024;-52
2021/03/17 06:23:16;;;;;;;8.02;3.95;;;2.10;91.00;;;;;;5074232;28;20372;-55
2021/03/17 06:25:45;;;;;;;11.95;4.38;;;2.00;91.30;;;;;;5073292;28;20499;-49
2021/03/17 06:28:14;;;;;;;10.02;4.28;;;2.10;91.30;;;;;;5073483;28;20039;-55
2021/03/17 06:30:40;;;;;;;8.98;4.25;;;2.20;91.10;;;;;;5074069;28;20063;-51
2021/03/17 06:33:06;;;;;;;10.52;3.80;;;2.00;91.40;;;;;;5094294;28;20101;-49
2021/03/17 06:35:32;;;;;;;8.82;3.90;;;2.00;91.40;;;;;;5074576;28;20040;-52
2021/03/17 06:37:58;;;;;;;9.25;4.68;;;2.10;91.00;;;;;;5074066;28;20036;-49
2021/03/17 06:40:36;;;;;;;10.93;4.30;;;1.80;91.50;;;;;;5057256;28;20025;-50
2021/03/17 06:43:09;;;;;;;10.32;4.50;;;2.00;91.40;;;;;;5078695;28;20400;-55
2021/03/17 06:45:48;;;;;;;8.52;3.95;;;2.10;91.20;;;;;;5079827;28;20403;-54
2021/03/17 06:48:24;;;;;;;11.73;3.58;;;2.30;90.90;;;;;;5079301;28;20068;-56
2021/03/17 06:51:09;;;;;;;7.60;3.97;;;2.40;90.60;;;;;;5061457;28;20038;-53
2021/03/17 06:53:59;;;;;;;9.30;4.32;;;2.30;90.60;;;;;;5082369;28;20032;-57
2021/03/17 06:56:36;;;;;;;10.35;4.10;;;2.30;90.40;;;;;;5074049;28;20040;-51
2021/03/17 06:59:07;;;;;;;11.57;4.00;;;2.50;90.20;;;;;;5073808;28;20111;-54
2021/03/17 07:01:41;;;;;;;8.30;4.00;;;2.60;89.50;;;;;;5074037;28;20036;-51
2021/03/17 07:04:17;;;;;;;8.30;4.03;;;2.50;90.20;;;;;;5073202;28;20432;-52
2021/03/17 07:06:45;;;;;;;10.82;3.97;;;2.50;90.00;;;;;;5073609;28;20033;-56
2021/03/17 07:09:24;;;;;;;13.05;4.28;;;2.60;90.10;;;;;;5072631;28;20070;-53
2021/03/17 07:11:52;;;;;;;9.23;3.55;;;2.60;90.00;;;;;;5073505;28;20036;-53
2021/03/17 07:14:25;;;;;;;8.05;3.88;;;2.50;90.30;;;;;;5071660;28;20036;-56
2021/03/17 07:16:53;;;;;;;8.10;3.85;;;2.40;90.50;;;;;;5055975;28;20040;-52
2021/03/17 07:19:34;;;;;;;9.15;3.83;;;2.30;90.90;;;;;;5072912;28;20032;-53
2021/03/17 07:22:11;;;;;;;6.78;4.38;;;2.30;91.00;;;;;;5073400;28;20032;-57
2021/03/17 07:24:45;;;;;;;7.65;4.20;;;2.30;91.00;;;;;;5071967;28;20191;-50
2021/03/17 07:27:17;;;;;;;12.95;4.38;;;2.30;90.90;;;;;;5056436;28;20027;-55
2021/03/17 07:29:45;;;;;;;9.32;4.18;;;2.40;91.10;;;;;;5055677;28;20025;-50
2021/03/17 07:32:11;;;;;;;9.43;4.47;;;2.30;91.20;;;;;;5073362;28;20144;-58
2021/03/17 07:34:36;;;;;;;7.93;4.38;;;2.30;91.30;;;;;;5073489;28;20039;-57
2021/03/17 07:37:02;;;;;;;9.63;4.90;;;2.30;91.50;;;;;;5073159;28;20396;-60
2021/03/17 07:39:30;;;;;;;8.27;4.78;;;2.30;91.50;;;;;;5072507;28;20047;-51
2021/03/17 07:41:58;;;;;;;12.57;5.38;;;2.30;91.90;;;;;;5073205;28;20075;-51
2021/03/17 07:44:25;;;;;;;11.93;4.93;;;2.30;91.90;;;;;;5054683;28;20436;-53
2021/03/17 07:47:00;;;;;;;9.63;5.35;;;2.40;91.70;;;;;;5072992;28;20036;-54
2021/03/17 07:49:27;;;;;;;14.48;6.30;;;2.30;92.10;;;;;;5038960;28;20077;-53
2021/03/17 07:51:56;;;;;;;11.07;5.55;;;2.50;91.90;;;;;;5056170;28;20387;-57
2021/03/17 07:54:26;;;;;;;14.63;6.20;;;2.50;91.80;;;;;;5073493;28;20487;-56
2021/03/17 07:56:52;;;;;;;12.68;5.47;;;2.50;91.70;;;;;;5073222;28;20052;-51
2021/03/17 07:59:18;;;;;;;9.57;5.15;;;2.60;91.80;;;;;;5077070;28;20090;-57
2021/03/17 08:01:45;;;;;;;12.30;5.57;;;2.60;91.70;;;;;;5073769;28;20047;-56
2021/03/17 08:04:12;;;;;;;10.00;5.15;;;2.70;91.60;;;;;;5073425;28;20036;-56
2021/03/17 08:06:38;;;;;;;17.20;5.88;;;2.80;91.30;;;;;;5073650;28;20078;-54
2021/03/17 08:09:04;;;;;;;12.82;5.47;;;2.70;91.50;;;;;;5055437;28;20032;-54
2021/03/17 08:11:31;;;;;;;12.23;6.28;;;2.60;91.70;;;;;;5063788;28;20036;-57
2021/03/17 08:13:57;;;;;;;12.48;6.13;;;2.70;91.70;;;;;;5055553;28;20024;-56
2021/03/17 08:16:27;;;;;;;12.88;6.60;;;2.70;91.40;;;;;;5065551;28;20044;-59
2021/03/17 08:18:53;;;;;;;13.27;5.50;;;2.80;91.50;;;;;;5063120;28;20499;-58
2021/03/17 08:21:48;;;;;;;17.25;6.05;;;2.90;91.30;;;;;;5054741;28;20110;-54
2021/03/17 08:24:38;;;;;;;11.38;5.65;;;3.00;91.20;;;;;;5051251;28;20096;-54
2021/03/17 08:27:06;;;;;;;17.73;6.38;;;2.90;91.00;;;;;;5074778;28;20079;-54
2021/03/17 08:30:02;;;;;;;15.93;6.13;;;3.00;91.20;;;;;;5055201;28;20063;-49
2021/03/17 08:32:52;;;;;;;11.93;5.90;;;3.10;91.00;;;;;;5069982;28;20032;-54
2021/03/17 08:35:19;;;;;;;16.13;5.93;;;3.00;91.10;;;;;;5053501;28;20115;-53
2021/03/17 08:37:50;;;;;;;12.55;5.72;;;3.00;90.70;;;;;;5064801;28;20368;-52
2021/03/17 08:40:37;;;;;;;16.80;6.60;;;3.10;90.50;;;;;;5063954;28;20074;-53
2021/03/17 08:43:27;;;;;;;13.05;6.63;;;3.10;90.40;;;;;;5056488;28;20037;-53
2021/03/17 08:46:09;;;;;;;20.30;6.30;;;3.10;90.40;;;;;;5051285;28;20035;-49
2021/03/17 08:49:04;;;;;;;10.60;5.55;;;3.20;90.20;;;;;;5048916;28;20040;-53
2021/03/17 08:51:47;;;;;;;12.52;5.72;;;3.20;90.10;;;;;;5062427;28;20024;-49
2021/03/17 08:54:31;;;;;;;15.50;5.82;;;3.20;90.10;;;;;;5051179;28;20428;-50
2021/03/17 08:57:08;;;;;;;13.63;6.00;;;3.20;90.20;;;;;;5070851;28;20036;-54
2021/03/17 09:00:00;;;;;;;15.40;5.50;;;3.10;90.40;;;;;;5053544;28;20060;-53
2021/03/17 09:02:26;;;;;;;13.98;5.20;;;3.30;89.90;;;;;;5071412;28;20035;-54
2021/03/17 09:04:57;;;;;;;13.02;6.90;;;3.40;89.00;;;;;;5071582;28;20040;-51
2021/03/17 09:07:25;;;;;;;13.73;5.22;;;3.40;89.10;;;;;;5067845;28;20410;-54
2021/03/17 09:10:18;;;;;;;16.23;6.43;;;3.40;88.40;;;;;;5060589;28;20503;-53
2021/03/17 09:12:43;;;;;;;9.57;5.53;;;3.50;88.20;;;;;;5058499;28;20048;-54
2021/03/17 09:15:16;;;;;;;15.68;6.35;;;3.50;87.70;;;;;;5062102;28;20031;-58
2021/03/17 09:17:55;;;;;;;14.85;5.38;;;3.60;87.30;;;;;;5061816;28;20040;-52
2021/03/17 09:20:29;;;;;;;11.73;5.28;;;3.60;86.10;;;;;;5050512;28;20036;-53
2021/03/17 09:23:00;;;;;;;10.43;6.03;;;3.70;85.40;;;;;;5069436;28;20376;-53
2021/03/17 09:25:31;;;;;;;12.50;4.97;;;3.60;86.30;;;;;;5046963;28;20040;-59
2021/03/17 09:28:32;;;;;;;14.23;6.22;;;3.70;85.40;;;;;;5065340;28;20028;-54
2021/03/17 09:31:01;;;;;;;8.45;3.92;;;3.80;85.00;;;;;;4988116;28;20034;-50
2021/03/17 09:33:38;;;;;;;9.00;4.72;;;3.90;83.50;;;;;;5046283;28;20380;-49
2021/03/17 09:36:09;;;;;;;7.45;4.55;;;4.00;83.40;;;;;;5061763;28;20046;-55
2021/03/17 09:38:40;;;;;;;9.18;4.85;;;3.90;83.40;;;;;;5042744;28;20403;-49
2021/03/17 09:41:14;;;;;;;12.23;5.35;;;3.90;83.90;;;;;;5052264;28;20036;-52
2021/03/17 09:44:03;;;;;;;10.40;4.22;;;4.00;83.90;;;;;;5064643;28;20032;-52
2021/03/17 09:46:35;;;;;;;10.63;4.65;;;4.30;82.40;;;;;;5069498;28;20075;-51
2021/03/17 09:49:23;;;;;;;10.77;5.00;;;4.20;83.00;;;;;;5074281;28;20669;-51
2021/03/17 09:51:51;;;;;;;8.98;4.85;;;4.10;83.00;;;;;;5066482;28;20131;-56
2021/03/17 09:54:27;;;;;;;11.73;5.10;;;4.10;83.30;;;;;;5073727;28;20070;-49
2021/03/17 09:56:58;;;;;;;11.00;4.50;;;4.20;82.70;;;;;;5050418;28;20052;-49
2021/03/17 09:59:35;;;;;;;9.00;4.68;;;4.30;81.60;;;;;;5061992;28;20040;-57
2021/03/17 10:02:14;;;;;;;12.38;5.28;;;4.20;81.80;;;;;;5060399;28;20029;-60
2021/03/17 10:04:43;;;;;;;9.88;4.55;;;4.20;82.90;;;;;;5075163;28;20056;-55
2021/03/17 10:07:30;;;;;;;11.27;4.45;;;4.30;82.70;;;;;;5066336;28;20036;-52
2021/03/17 10:09:57;;;;;;;11.88;4.43;;;4.30;81.50;;;;;;5055023;28;20043;-56
2021/03/17 10:12:26;;;;;;;11.25;5.05;;;4.30;82.30;;;;;;5065915;28;20115;-49
2021/03/17 10:14:57;;;;;;;11.38;4.75;;;4.40;82.10;;;;;;5070512;28;20611;-47
2021/03/17 10:17:25;;;;;;;8.75;4.97;;;4.30;81.30;;;;;;5054582;28;20033;-52
2021/03/17 10:20:05;;;;;;;8.88;4.50;;;4.20;81.50;;;;;;5053078;28;20036;-49
2021/03/17 10:22:31;;;;;;;7.55;4.38;;;4.40;81.60;;;;;;5070208;28;20099;-48
2021/03/17 10:24:58;;;;;;;10.88;4.32;;;4.30;81.00;;;;;;5059740;28;20552;-50
2021/03/17 10:27:33;;;;;;;10.50;5.25;;;4.30;81.20;;;;;;5055416;28;20025;-60
2021/03/17 10:30:11;;;;;;;9.30;5.47;;;4.30;81.50;;;;;;5069071;28;20052;-56
2021/03/17 10:32:39;;;;;;;9.40;4.57;;;4.40;81.60;;;;;;5066895;28;20086;-49
2021/03/17 10:35:10;;;;;;;11.07;4.80;;;4.30;80.80;;;;;;5061374;28;20044;-53
2021/03/17 10:37:36;;;;;;;7.85;4.93;;;4.30;81.00;;;;;;5068963;28;20032;-58
2021/03/17 10:40:08;;;;;;;9.25;4.45;;;4.40;81.10;;;;;;5073748;28;20514;-55
2021/03/17 10:42:34;;;;;;;10.38;5.72;;;4.40;81.20;;;;;;5075534;28;20502;-50
2021/03/17 10:45:00;;;;;;;12.40;5.05;;;4.30;82.60;;;;;;5074170;28;20041;-51
2021/03/17 10:47:26;;;;;;;9.13;4.53;;;4.30;82.60;;;;;;5074018;28;20360;-50
2021/03/17 10:49:52;;;;;;;8.10;3.95;;;4.30;81.60;;;;;;5072532;28;20044;-49
2021/03/17 10:52:18;;;;;;;7.35;4.32;;;4.20;80.60;;;;;;5065272;28;20032;-53
2021/03/17 10:54:45;;;;;;;9.70;4.22;;;4.20;81.00;;;;;;5045399;28;20040;-49
2021/03/17 10:57:22;;;;;;;8.00;4.20;;;4.20;81.70;;;;;;5062120;28;20017;-57
2021/03/17 10:59:48;;;;;;;10.35;4.82;;;4.30;81.20;;;;;;5064507;28;20032;-54
2021/03/17 11:02:25;;;;;;;9.45;4.43;;;4.20;81.50;;;;;;5043475;28;20115;-51
2021/03/17 11:05:18;;;;;;;10.40;4.82;;;4.20;82.20;;;;;;5064527;28;20032;-54
2021/03/17 11:08:05;;;;;;;7.65;4.07;;;4.30;81.40;;;;;;5073469;28;20024;-51
2021/03/17 11:10:36;;;;;;;10.60;4.80;;;4.40;81.30;;;;;;5055004;28;20035;-49
2021/03/17 11:13:17;;;;;;;8.82;4.28;;;4.40;80.50;;;;;;5073179;28;20043;-50
2021/03/17 11:15:57;;;;;;;8.38;4.38;;;4.40;80.90;;;;;;5072573;28;20389;-49
2021/03/17 11:18:36;;;;;;;7.90;4.20;;;4.40;80.30;;;;;;5070590;28;20521;-58
2021/03/17 11:21:08;;;;;;;6.65;4.38;;;4.40;80.80;;;;;;5052999;28;20093;-58
2021/03/17 11:23:37;;;;;;;8.05;3.90;;;4.30;80.70;;;;;;5074362;28;20375;-56
2021/03/17 11:26:08;;;;;;;6.65;3.95;;;4.30;81.50;;;;;;5058196;28;20393;-53
2021/03/17 11:28:40;;;;;;;6.03;3.67;;;4.20;82.50;;;;;;5062267;28;20036;-52
2021/03/17 11:31:11;;;;;;;6.53;3.60;;;4.10;81.40;;;;;;5065557;28;20037;-55
2021/03/17 11:33:38;;;;;;;16.10;4.43;;;4.20;82.00;;;;;;5072740;28;20031;-50
2021/03/17 11:36:06;;;;;;;10.10;4.45;;;4.40;81.80;;;;;;5067327;28;20051;-55
2021/03/17 11:38:32;;;;;;;7.25;3.42;;;4.70;81.70;;;;;;5067275;28;20047;-51
2021/03/17 11:40:58;;;;;;;6.85;4.07;;;4.80;80.30;;;;;;5072192;28;20064;-55
2021/03/17 11:43:30;;;;;;;12.70;4.90;;;4.60;80.40;;;;;;5072299;28;20395;-54
2021/03/17 11:45:57;;;;;;;9.43;4.20;;;4.70;81.00;;;;;;5038154;28;20036;-55
2021/03/17 11:48:23;;;;;;;7.00;3.63;;;4.70;81.50;;;;;;5072070;28;20055;-51
2021/03/17 11:50:53;;;;;;;8.98;3.67;;;4.90;80.50;;;;;;5072483;28;20514;-49
2021/03/17 11:53:19;;;;;;;7.55;3.60;;;5.00;79.50;;;;;;5072254;28;20086;-56
2021/03/17 11:55:46;;;;;;;7.95;3.55;;;4.80;79.30;;;;;;5044109;28;20035;-55
2021/03/17 11:58:12;;;;;;;9.60;4.32;;;4.80;78.00;;;;;;5052092;28;20086;-51
2021/03/17 12:00:39;;;;;;;8.02;3.88;;;4.80;78.10;;;;;;5059294;28;20041;-55
2021/03/17 12:03:05;;;;;;;9.43;3.58;;;4.90;77.70;;;;;;5066715;28;20446;-58
2021/03/17 12:05:31;;;;;;;11.40;3.63;;;4.90;77.20;;;;;;5071767;28;20506;-54
2021/03/17 12:07:57;;;;;;;9.95;3.92;;;4.70;77.50;;;;;;5086768;28;20122;-55
2021/03/17 12:10:24;;;;;;;8.90;4.05;;;4.80;77.70;;;;;;5071965;28;20035;-56
2021/03/17 12:12:50;;;;;;;12.68;4.00;;;4.90;77.30;;;;;;5058160;28;20029;-52
2021/03/17 12:15:19;;;;;;;12.07;4.38;;;4.90;77.40;;;;;;5066776;28;20163;-51
2021/03/17 12:17:45;;;;;;;6.68;3.53;;;4.90;77.60;;;;;;5071308;28;20201;-53
2021/03/17 12:20:13;;;;;;;9.55;3.75;;;5.10;77.70;;;;;;5066888;28;20075;-52
2021/03/17 12:22:38;;;;;;;8.57;4.63;;;5.20;77.30;;;;;;5066990;28;20041;-49
2021/03/17 12:25:05;;;;;;;9.02;3.70;;;5.00;78.00;;;;;;5060873;28;20043;-51
2021/03/17 12:27:32;;;;;;;8.82;3.78;;;5.00;77.60;;;;;;5055696;28;20123;-58
2021/03/17 12:29:58;;;;;;;7.45;3.38;;;4.90;76.90;;;;;;5053268;28;20119;-52
2021/03/17 12:32:25;;;;;;;11.77;3.67;;;4.80;76.80;;;;;;5053971;28;20025;-55
2021/03/17 12:34:50;;;;;;;10.30;3.90;;;4.90;76.10;;;;;;5070955;28;20072;-48
2021/03/17 12:37:16;;;;;;;13.52;3.85;;;5.00;76.50;;;;;;5061186;28;20394;-52
2021/03/17 12:39:42;;;;;;;17.52;4.47;;;4.90;77.00;;;;;;5053413;28;20047;-55
2021/03/17 12:42:08;;;;;;;8.70;4.22;;;5.00;76.70;;;;;;5053624;28;20056;-49
2021/03/17 12:44:35;;;;;;;9.02;4.25;;;5.00;76.80;;;;;;5062644;28;20041;-52
2021/03/17 12:47:01;;;;;;;7.85;3.78;;;5.10;76.80;;;;;;5069573;28;20463;-51
2021/03/17 12:49:28;;;;;;;7.18;3.80;;;5.00;76.90;;;;;;5054100;28;20147;-49
2021/03/17 12:51:55;;;;;;;9.82;3.75;;;5.00;76.90;;;;;;5053825;28;20059;-48
2021/03/17 12:54:21;;;;;;;8.38;4.32;;;5.00;76.40;;;;;;5053818;28;20144;-48
2021/03/17 12:56:47;;;;;;;13.77;4.90;;;5.00;76.70;;;;;;5071580;28;20461;-52
2021/03/17 12:59:12;;;;;;;9.43;4.05;;;5.00;77.20;;;;;;5070911;28;20037;-49
2021/03/17 13:01:38;;;;;;;8.68;4.28;;;5.00;76.90;;;;;;5071572;28;20037;-53
2021/03/17 13:04:04;;;;;;;7.78;4.40;;;4.90;76.50;;;;;;5061301;28;20056;-53
2021/03/17 13:06:31;;;;;;;8.73;4.25;;;5.00;76.20;;;;;;5071477;28;20035;-49
2021/03/17 13:09:01;;;;;;;11.15;4.10;;;4.90;76.90;;;;;;5091383;28;20028;-51